Time;durP1;ratioP1;P1;durP2;ratioP2;P2;SDS_P1;SDS_P2;PMS_P1;PMS_P2;Temp;Humidity;BMP_temperature;BMP_pressure;BME280_temperature;BME280_humidity;BME280_pressure;Samples;Min_cycle;Max_cycle;Signal;HPM_P1;HPM_P2
2021/04/16 00:01:07;;;;;;;6.15;3.92;;;10.30;70.40;;;;;;5092891;28;20024;-77
2021/04/16 00:03:34;;;;;;;5.75;3.72;;;10.20;70.40;;;;;;5092133;28;20024;-78
2021/04/16 00:06:00;;;;;;;6.45;4.35;;;10.20;70.60;;;;;;5092839;28;20488;-77
2021/04/16 00:08:31;;;;;;;13.98;4.55;;;10.20;70.50;;;;;;5092581;28;20053;-76
2021/04/16 00:11:12;;;;;;;8.07;3.97;;;10.20;70.50;;;;;;5091142;28;20484;-79
2021/04/16 00:13:38;;;;;;;6.65;3.80;;;10.10;70.50;;;;;;5092837;28;20029;-78
2021/04/16 00:16:07;;;;;;;11.23;4.22;;;10.10;70.80;;;;;;5093328;28;20456;-79
2021/04/16 00:18:33;;;;;;;11.15;4.00;;;10.10;70.90;;;;;;5092511;28;20040;-77
2021/04/16 00:20:59;;;;;;;7.93;4.10;;;10.10;70.80;;;;;;5092519;28;20024;-78
2021/04/16 00:23:26;;;;;;;8.68;4.68;;;10.00;70.70;;;;;;5093046;28;20349;-80
2021/04/16 00:25:52;;;;;;;7.35;4.28;;;10.00;70.90;;;;;;5091351;28;20031;-80
2021/04/16 00:28:19;;;;;;;5.05;4.25;;;10.00;70.90;;;;;;5093150;28;20028;-79
2021/04/16 00:30:50;;;;;;;7.72;5.07;;;9.90;71.10;;;;;;5092729;28;20024;-79
2021/04/16 00:33:16;;;;;;;8.02;4.90;;;9.90;71.10;;;;;;5092718;28;20439;-79
2021/04/16 00:35:43;;;;;;;5.63;4.32;;;9.90;70.90;;;;;;5092579;28;20377;-78
2021/04/16 00:38:09;;;;;;;8.93;5.35;;;9.90;70.90;;;;;;5092248;28;20020;-80
2021/04/16 00:40:43;;;;;;;7.53;4.33;;;9.90;71.00;;;;;;5091079;28;20058;-80
2021/04/16 00:43:12;;;;;;;5.53;3.95;;;9.90;71.00;;;;;;5092232;28;20024;-79
2021/04/16 00:45:39;;;;;;;5.82;3.72;;;9.90;71.10;;;;;;5092434;28;20440;-79
2021/04/16 00:48:10;;;;;;;6.72;4.18;;;9.80;71.30;;;;;;5092213;28;20055;-78
2021/04/16 00:50:49;;;;;;;6.07;3.78;;;9.80;71.30;;;;;;5092510;28;20039;-80
2021/04/16 00:53:17;;;;;;;8.90;4.03;;;9.80;71.30;;;;;;5089617;28;20025;-79
2021/04/16 00:55:44;;;;;;;8.88;4.55;;;9.70;71.30;;;;;;5092476;28;20035;-79
2021/04/16 00:58:11;;;;;;;6.10;3.60;;;9.80;71.40;;;;;;5095275;28;20504;-80
2021/04/16 01:00:37;;;;;;;9.73;3.92;;;9.70;71.40;;;;;;5090113;28;20066;-80
2021/04/16 01:03:05;;;;;;;7.28;3.58;;;9.70;71.20;;;;;;5096428;28;20027;-80
2021/04/16 01:05:34;;;;;;;9.02;4.20;;;9.70;71.30;;;;;;5096010;28;20586;-77
2021/04/16 01:07:59;;;;;;;9.10;4.07;;;9.70;71.50;;;;;;5096172;28;20024;-77
2021/04/16 01:10:28;;;;;;;5.75;3.75;;;9.70;71.40;;;;;;5095976;28;20092;-78
2021/04/16 01:12:54;;;;;;;6.28;3.10;;;9.60;71.40;;;;;;5095885;28;20046;-78
2021/04/16 01:15:31;;;;;;;5.47;3.40;;;9.60;71.50;;;;;;5093042;28;20093;-78
2021/04/16 01:18:04;;;;;;;;;;;9.60;71.80;;;;;;5096465;28;20050;-80
2021/04/16 01:20:36;;;;;;;4.45;3.33;;;9.60;71.20;;;;;;5096283;28;19904;-80
2021/04/16 01:23:19;;;;;;;4.95;3.53;;;9.50;71.80;;;;;;5096092;28;20016;-80
2021/04/16 01:25:46;;;;;;;5.72;3.55;;;9.50;71.90;;;;;;5078058;28;20028;-79
2021/04/16 01:28:12;;;;;;;6.85;3.63;;;9.50;71.80;;;;;;5095781;28;20417;-80
2021/04/16 01:30:58;;;;;;;8.07;3.80;;;9.50;71.80;;;;;;5096391;28;20077;-78
2021/04/16 01:33:26;;;;;;;6.07;2.85;;;9.50;71.80;;;;;;5095763;28;20381;-80
2021/04/16 01:35:52;;;;;;;6.15;3.60;;;9.60;71.90;;;;;;5096042;28;20485;-79
2021/04/16 01:38:19;;;;;;;3.63;2.92;;;9.50;71.80;;;;;;5092053;28;20393;-79
2021/04/16 01:40:45;;;;;;;4.97;2.95;;;9.50;71.80;;;;;;5097534;28;20024;-81
2021/04/16 01:43:17;;;;;;;5.10;3.45;;;9.50;71.80;;;;;;5077170;28;20020;-80
2021/04/16 01:45:43;;;;;;;9.57;3.75;;;9.50;71.70;;;;;;5095589;28;20485;-79
2021/04/16 01:48:09;;;;;;;6.50;3.08;;;9.60;71.40;;;;;;5095170;28;20082;-79
2021/04/16 01:50:35;;;;;;;5.80;3.00;;;9.50;71.40;;;;;;5095384;28;20059;-79
2021/04/16 01:53:02;;;;;;;3.67;3.03;;;9.50;71.30;;;;;;5094869;28;20431;-79
2021/04/16 01:55:28;;;;;;;7.20;2.85;;;9.50;71.30;;;;;;5094853;28;20136;-78
2021/04/16 01:57:54;;;;;;;6.20;2.85;;;9.60;71.40;;;;;;5094994;28;20034;-78
2021/04/16 02:00:29;;;;;;;7.57;3.45;;;9.50;71.50;;;;;;5094821;28;20016;-79
2021/04/16 02:02:54;;;;;;;8.88;4.13;;;9.50;71.40;;;;;;5077057;28;20035;-78
2021/04/16 02:05:20;;;;;;;3.83;2.80;;;9.50;71.30;;;;;;5076653;28;20023;-77
2021/04/16 02:07:46;;;;;;;7.40;3.53;;;9.40;71.40;;;;;;5076022;28;20362;-80
2021/04/16 02:10:13;;;;;;;5.50;3.00;;;9.40;71.50;;;;;;5095302;28;20020;-79
2021/04/16 02:12:39;;;;;;;6.25;3.30;;;9.40;71.50;;;;;;5094690;28;20026;-79
2021/04/16 02:15:07;;;;;;;3.90;3.08;;;9.40;71.40;;;;;;5094781;28;20039;-78
2021/04/16 02:17:33;;;;;;;4.90;3.35;;;9.40;71.30;;;;;;5094143;28;20068;-78
2021/04/16 02:20:10;;;;;;;6.47;2.67;;;9.30;71.40;;;;;;5094666;28;20028;-78
2021/04/16 02:22:37;;;;;;;8.35;3.10;;;9.40;71.40;;;;;;5094331;28;20020;-79
2021/04/16 02:25:04;;;;;;;3.40;2.85;;;9.40;71.30;;;;;;5094558;28;20031;-79
2021/04/16 02:27:29;;;;;;;3.87;2.97;;;9.40;71.10;;;;;;5094052;28;20016;-82
2021/04/16 02:29:56;;;;;;;4.10;3.00;;;9.40;71.10;;;;;;5094264;28;20564;-81
2021/04/16 02:32:22;;;;;;;6.45;3.10;;;9.40;71.20;;;;;;5094066;28;20051;-79
2021/04/16 02:34:48;;;;;;;3.80;3.05;;;9.40;71.30;;;;;;5090726;28;20404;-80
2021/04/16 02:37:18;;;;;;;4.15;2.22;;;9.40;71.10;;;;;;5094402;28;20483;-81
2021/04/16 02:39:44;;;;;;;4.22;2.53;;;9.40;71.00;;;;;;5091834;28;20023;-80
2021/04/16 02:42:10;;;;;;;5.50;2.95;;;9.40;71.10;;;;;;5095511;28;20020;-81
2021/04/16 02:44:36;;;;;;;6.60;2.80;;;9.30;71.00;;;;;;5094807;28;20023;-79
2021/04/16 02:47:04;;;;;;;4.50;2.25;;;9.30;71.10;;;;;;5088477;28;20071;-80
2021/04/16 02:49:30;;;;;;;;;;;9.30;71.00;;;;;;5094258;28;20100;-77
2021/04/16 02:51:56;;;;;;;6.20;3.10;;;9.20;70.80;;;;;;5071967;28;19958;-76
2021/04/16 02:54:23;;;;;;;3.88;2.60;;;9.10;71.20;;;;;;5093857;28;20078;-79
2021/04/16 02:56:49;;;;;;;6.35;3.70;;;9.10;71.30;;;;;;5093706;28;20016;-77
2021/04/16 02:59:19;;;;;;;3.80;2.92;;;9.20;71.20;;;;;;5093788;28;20031;-80
2021/04/16 03:01:45;;;;;;;2.92;2.20;;;9.20;70.90;;;;;;5075254;28;20042;-79
2021/04/16 03:04:10;;;;;;;5.18;2.33;;;9.20;70.70;;;;;;5093730;28;20023;-77
2021/04/16 03:06:36;;;;;;;5.13;2.92;;;9.10;70.80;;;;;;5094080;28;20031;-76
2021/04/16 03:09:04;;;;;;;14.95;2.88;;;9.20;70.90;;;;;;5093696;28;20023;-78
2021/04/16 03:11:30;;;;;;;5.47;2.67;;;9.10;70.70;;;;;;5093332;28;20028;-79
2021/04/16 03:13:57;;;;;;;3.92;3.10;;;9.10;70.80;;;;;;5093079;28;20066;-79
2021/04/16 03:16:25;;;;;;;5.05;2.63;;;9.20;70.80;;;;;;5088152;28;20020;-79
2021/04/16 03:18:53;;;;;;;5.15;2.80;;;9.20;70.60;;;;;;5094273;28;20024;-80
2021/04/16 03:21:19;;;;;;;2.83;2.33;;;9.20;70.60;;;;;;5093393;28;20492;-78
2021/04/16 03:23:45;;;;;;;5.80;2.55;;;9.20;70.10;;;;;;5093478;28;20028;-78
2021/04/16 03:26:11;;;;;;;7.13;2.33;;;9.10;70.20;;;;;;5093666;28;20094;-78
2021/04/16 03:28:37;;;;;;;4.22;2.83;;;9.10;70.30;;;;;;5093581;28;20082;-79
2021/04/16 03:31:04;;;;;;;9.20;2.60;;;9.10;70.00;;;;;;5079243;28;20024;-79
2021/04/16 03:33:29;;;;;;;6.55;3.05;;;9.10;70.20;;;;;;5068524;28;20044;-79
2021/04/16 03:35:55;;;;;;;6.13;2.80;;;9.10;70.10;;;;;;5070428;28;20017;-79
2021/04/16 03:38:21;;;;;;;6.88;3.70;;;9.10;69.90;;;;;;5086406;28;20059;-81
2021/04/16 03:40:47;;;;;;;11.20;4.40;;;9.10;70.10;;;;;;5086636;28;20377;-78
2021/04/16 03:43:14;;;;;;;4.70;3.22;;;9.10;70.20;;;;;;5092904;28;20112;-80
2021/04/16 03:45:40;;;;;;;5.77;3.60;;;9.00;70.00;;;;;;5093539;28;20017;-80
2021/04/16 03:48:07;;;;;;;6.72;3.90;;;9.00;70.20;;;;;;5092966;28;20426;-79
2021/04/16 03:50:34;;;;;;;5.40;3.10;;;9.00;70.50;;;;;;5071906;28;20102;-80
2021/04/16 03:53:00;;;;;;;;;;;9.00;70.30;;;;;;5078950;28;20439;-79
2021/04/16 03:55:29;;;;;;;10.05;3.25;;;9.00;69.60;;;;;;5092760;28;19916;-80
2021/04/16 03:57:55;;;;;;;4.15;2.40;;;9.00;70.00;;;;;;5092687;28;20399;-80
2021/04/16 04:00:29;;;;;;;7.15;4.40;;;9.00;70.20;;;;;;5092777;28;20054;-80
2021/04/16 04:02:55;;;;;;;9.15;3.97;;;9.00;70.60;;;;;;5092960;28;20048;-79
2021/04/16 04:05:21;;;;;;;6.85;3.88;;;9.00;70.40;;;;;;5093123;28;20024;-79
2021/04/16 04:07:47;;;;;;;7.20;3.50;;;8.90;70.40;;;;;;5092702;28;20027;-80
2021/04/16 04:10:16;;;;;;;3.80;2.70;;;9.00;70.60;;;;;;5092980;28;20028;-78
2021/04/16 04:12:42;;;;;;;11.25;3.85;;;9.00;70.70;;;;;;5092721;28;20358;-78
2021/04/16 04:15:09;;;;;;;10.73;4.90;;;9.10;70.30;;;;;;5092706;28;20130;-80
2021/04/16 04:17:36;;;;;;;8.98;3.42;;;9.20;69.40;;;;;;5092312;28;20028;-79
2021/04/16 04:20:05;;;;;;;3.50;2.80;;;9.20;69.00;;;;;;5093054;28;20468;-80
2021/04/16 04:22:30;;;;;;;11.52;5.80;;;9.20;68.80;;;;;;5092954;28;20020;-80
2021/04/16 04:24:56;;;;;;;9.45;3.13;;;9.20;68.80;;;;;;5098900;28;20051;-80
2021/04/16 04:27:22;;;;;;;7.65;3.28;;;9.20;68.50;;;;;;5071578;28;20020;-80
2021/04/16 04:29:48;;;;;;;6.82;3.00;;;9.20;68.60;;;;;;5073039;28;20028;-82
2021/04/16 04:32:14;;;;;;;7.18;3.28;;;9.20;68.70;;;;;;5060907;28;20016;-79
2021/04/16 04:34:41;;;;;;;16.13;4.00;;;9.30;68.40;;;;;;5079306;28;20052;-79
2021/04/16 04:37:08;;;;;;;10.00;3.33;;;9.30;68.30;;;;;;5079941;28;20020;-82
2021/04/16 04:39:40;;;;;;;8.02;3.03;;;9.30;68.70;;;;;;5078490;28;20024;-80
2021/04/16 04:42:07;;;;;;;6.75;2.40;;;9.30;68.50;;;;;;5071593;28;20439;-80
2021/04/16 04:44:33;;;;;;;6.40;3.10;;;9.30;68.20;;;;;;5078960;28;20016;-80
2021/04/16 04:46:59;;;;;;;5.00;2.20;;;9.30;68.20;;;;;;5060825;28;20253;-81
2021/04/16 04:49:26;;;;;;;8.20;5.15;;;9.30;67.30;;;;;;5078794;28;20016;-79
2021/04/16 04:52:33;;;;;;;11.32;4.50;;;9.20;68.30;;;;;;5060305;28;20385;-80
2021/04/16 04:54:59;;;;;;;;;;;9.20;68.10;;;;;;5074932;28;20482;-80
2021/04/16 04:57:27;;;;;;;7.15;3.13;;;9.20;67.90;;;;;;5079838;28;19911;-79
2021/04/16 04:59:53;;;;;;;;;;;9.30;68.20;;;;;;5080038;28;20388;-79
2021/04/16 05:02:21;;;;;;;3.70;2.20;;;9.30;68.10;;;;;;5079512;28;20345;-80
2021/04/16 05:04:47;;;;;;;13.13;4.75;;;9.20;67.20;;;;;;5087662;28;20029;-80
2021/04/16 05:07:14;;;;;;;5.78;3.15;;;9.10;68.10;;;;;;5096252;28;20016;-79
2021/04/16 05:09:40;;;;;;;6.55;3.33;;;8.90;67.80;;;;;;5080682;28;20116;-81
2021/04/16 05:12:07;;;;;;;16.48;4.80;;;9.00;68.40;;;;;;5099078;28;20061;-80
2021/04/16 05:14:33;;;;;;;5.32;3.28;;;9.10;68.20;;;;;;5080680;28;20035;-79
2021/04/16 05:16:59;;;;;;;8.65;4.03;;;9.20;67.30;;;;;;5064883;28;20412;-81
2021/04/16 05:19:25;;;;;;;12.50;4.63;;;9.20;67.20;;;;;;5098171;28;20101;-80
2021/04/16 05:21:55;;;;;;;10.13;3.73;;;9.30;67.60;;;;;;5098186;28;20478;-82
2021/04/16 05:24:21;;;;;;;7.47;3.40;;;9.50;67.00;;;;;;5098951;28;20027;-81
2021/04/16 05:26:47;;;;;;;10.27;3.35;;;9.50;65.60;;;;;;5098604;28;20139;-82
2021/04/16 05:29:13;;;;;;;7.93;3.25;;;9.50;65.80;;;;;;5098459;28;20048;-80
2021/04/16 05:31:39;;;;;;;9.07;4.43;;;9.60;64.80;;;;;;5098522;28;20060;-81
2021/04/16 05:34:05;;;;;;;7.25;3.35;;;9.60;64.50;;;;;;5089406;28;20028;-80
2021/04/16 05:36:31;;;;;;;9.25;4.80;;;9.50;64.40;;;;;;5099953;28;20461;-78
2021/04/16 05:38:57;;;;;;;10.07;3.25;;;9.50;64.30;;;;;;5101752;28;20070;-81
2021/04/16 05:41:24;;;;;;;7.80;3.55;;;9.70;64.10;;;;;;5098704;28;20381;-82
2021/04/16 05:43:50;;;;;;;7.90;3.45;;;10.10;63.10;;;;;;5094929;28;20024;-81
2021/04/16 05:46:16;;;;;;;7.85;3.72;;;10.30;62.40;;;;;;5093634;28;20024;-81
2021/04/16 05:48:43;;;;;;;8.00;3.05;;;10.50;61.70;;;;;;5093875;28;20088;-80
2021/04/16 05:51:09;;;;;;;8.70;3.42;;;10.60;61.20;;;;;;5084077;28;20058;-81
2021/04/16 05:53:36;;;;;;;10.20;4.43;;;10.70;60.40;;;;;;5094361;28;20103;-87
2021/04/16 05:56:02;;;;;;;8.55;5.22;;;10.70;60.40;;;;;;5089085;28;20031;-87
2021/04/16 05:58:27;;;;;;;9.93;4.25;;;11.00;60.70;;;;;;5096038;28;20032;-87
2021/04/16 06:00:53;;;;;;;11.57;4.50;;;11.70;59.30;;;;;;5097755;28;20020;-84
2021/04/16 06:03:19;;;;;;;8.07;3.58;;;12.10;56.80;;;;;;5095783;28;20028;-86
2021/04/16 06:05:46;;;;;;;6.18;3.55;;;12.10;55.60;;;;;;5095343;28;20062;-85
2021/04/16 06:08:13;;;;;;;14.73;3.67;;;11.90;55.50;;;;;;5094852;28;20396;-84
2021/04/16 06:10:39;;;;;;;7.47;4.50;;;12.00;55.80;;;;;;5095537;28;20265;-83
2021/04/16 06:13:05;;;;;;;6.07;2.75;;;12.10;56.10;;;;;;5105425;28;20023;-84
2021/04/16 06:15:31;;;;;;;14.88;5.38;;;12.10;55.20;;;;;;5103051;28;20034;-86
2021/04/16 06:17:57;;;;;;;11.07;4.32;;;12.00;55.40;;;;;;5097762;28;20066;-84
2021/04/16 06:20:26;;;;;;;12.48;3.95;;;12.10;55.50;;;;;;5098251;28;20061;-86
2021/04/16 06:22:54;;;;;;;18.85;4.53;;;12.20;55.60;;;;;;5095810;28;20016;-84
2021/04/16 06:25:27;;;;;;;16.08;4.97;;;12.40;54.20;;;;;;5095354;28;20476;-85
2021/04/16 06:27:53;;;;;;;11.00;3.88;;;12.50;54.00;;;;;;5094866;28;20028;-86
2021/04/16 06:30:20;;;;;;;7.35;3.58;;;12.70;53.70;;;;;;5095069;28;20085;-84
2021/04/16 06:32:58;;;;;;;11.52;5.13;;;13.00;53.00;;;;;;5095027;28;20081;-86
2021/04/16 06:35:24;;;;;;;10.82;3.38;;;13.10;52.40;;;;;;5073504;28;20039;-87
2021/04/16 06:37:50;;;;;;;12.68;4.15;;;13.10;52.30;;;;;;5095094;28;20020;-86
2021/04/16 06:40:15;;;;;;;10.43;4.22;;;13.30;51.70;;;;;;5108047;28;20035;-85
2021/04/16 06:42:41;;;;;;;9.88;4.18;;;13.60;51.40;;;;;;5096789;28;20027;-87
2021/04/16 06:45:15;;;;;;;16.65;5.15;;;13.90;49.90;;;;;;5095504;28;20024;-84
2021/04/16 06:47:58;;;;;;;14.48;4.28;;;13.80;50.20;;;;;;5095201;28;20147;-86
2021/04/16 06:50:30;;;;;;;13.20;4.28;;;13.90;49.80;;;;;;5095104;28;20117;-87
2021/04/16 06:53:23;;;;;;;8.50;3.47;;;14.00;49.70;;;;;;5094994;28;20016;-85
2021/04/16 06:55:55;;;;;;;15.02;4.63;;;14.10;49.20;;;;;;5049803;28;20044;-86
2021/04/16 06:58:33;;;;;;;5.15;3.50;;;14.30;49.00;;;;;;5095379;28;20023;-84
2021/04/16 07:01:14;;;;;;;10.93;4.60;;;14.50;48.30;;;;;;5095275;28;20554;-85
2021/04/16 07:03:49;;;;;;;24.40;5.85;;;14.40;48.00;;;;;;5077112;28;20482;-85
2021/04/16 07:06:25;;;;;;;23.85;11.00;;;14.10;48.60;;;;;;5095352;28;20078;-86
2021/04/16 07:09:20;;;;;;;19.20;5.75;;;14.10;49.80;;;;;;5093821;28;20024;-86
2021/04/16 07:11:54;;;;;;;41.60;7.25;;;14.50;48.90;;;;;;5096936;28;20028;-85
2021/04/16 07:14:39;;;;;;;12.48;3.97;;;15.00;47.20;;;;;;5094943;28;20417;-85
2021/04/16 07:17:08;;;;;;;13.13;4.90;;;15.40;46.20;;;;;;5097912;28;20059;-82
2021/04/16 07:19:35;;;;;;;27.77;10.82;;;15.40;45.80;;;;;;5100332;28;20354;-86
2021/04/16 07:22:06;;;;;;;7.10;3.80;;;15.30;46.30;;;;;;5096064;28;20086;-87
2021/04/16 07:24:33;;;;;;;7.07;3.70;;;15.50;45.60;;;;;;5095401;28;20363;-86
2021/04/16 07:27:44;;;;;;;7.37;3.10;;;16.50;44.70;;;;;;5095178;28;20024;-85
2021/04/16 07:30:32;;;;;;;14.40;3.35;;;17.60;42.50;;;;;;5013151;28;20067;-86
2021/04/16 07:33:01;;;;;;;9.38;3.70;;;17.50;41.20;;;;;;5094158;28;20024;-85
2021/04/16 07:35:33;;;;;;;8.50;3.10;;;17.90;41.20;;;;;;5095830;28;20043;-85
2021/04/16 07:38:29;;;;;;;13.15;4.18;;;18.90;39.50;;;;;;5077991;28;20016;-86
2021/04/16 07:41:14;;;;;;;10.80;3.73;;;;;;;;;;5103859;28;20028;-84
2021/04/16 07:43:46;;;;;;;11.68;5.63;;;19.70;36.90;;;;;;5098487;28;20057;-89
2021/04/16 07:46:25;;;;;;;13.35;5.13;;;19.10;37.60;;;;;;5077700;28;20032;-85
2021/04/16 07:48:51;;;;;;;10.18;3.72;;;18.20;39.00;;;;;;5096482;28;20074;-86
2021/04/16 07:51:30;;;;;;;9.57;4.28;;;17.50;39.90;;;;;;5095001;28;20097;-85
2021/04/16 07:54:16;;;;;;;11.57;4.05;;;17.10;41.40;;;;;;5096233;28;20055;-86
2021/04/16 07:56:42;;;;;;;8.25;3.65;;;17.40;41.50;;;;;;5078538;28;20023;-85
2021/04/16 07:59:14;;;;;;;11.23;3.67;;;17.70;40.80;;;;;;5099494;28;20099;-87
2021/04/16 08:01:47;;;;;;;7.18;3.65;;;17.80;40.20;;;;;;5094954;28;20024;-86
2021/04/16 08:04:19;;;;;;;10.20;3.58;;;17.80;40.70;;;;;;5095233;28;20024;-86
2021/04/16 08:06:51;;;;;;;6.47;3.55;;;18.00;39.70;;;;;;5081250;28;20020;-88
2021/04/16 08:09:28;;;;;;;8.52;3.55;;;18.50;39.20;;;;;;5081263;28;20392;-86
2021/04/16 08:12:00;;;;;;;;;;;18.90;38.50;;;;;;5081905;28;20405;-84
2021/04/16 08:14:30;;;;;;;7.70;3.60;;;19.70;38.50;;;;;;5084747;28;20061;-85
2021/04/16 08:17:02;;;;;;;11.73;3.60;;;20.00;36.50;;;;;;5095654;28;20040;-87
2021/04/16 08:19:34;;;;;;;21.75;5.50;;;20.20;35.50;;;;;;5102522;28;20048;-85
2021/04/16 08:23:04;;;;;;;20.63;4.15;;;20.30;35.30;;;;;;5101230;28;20024;-86
2021/04/16 08:25:42;;;;;;;8.50;3.45;;;20.30;35.50;;;;;;5061437;28;20040;-86
2021/04/16 08:28:16;;;;;;;4.05;3.22;;;18.90;36.60;;;;;;5094418;28;20020;-86
2021/04/16 08:30:53;;;;;;;14.25;4.03;;;18.70;37.90;;;;;;5086412;28;20098;-86
2021/04/16 08:33:33;;;;;;;11.10;3.35;;;19.30;37.00;;;;;;5095771;28;20020;-85
2021/04/16 08:36:20;;;;;;;12.52;4.40;;;20.50;35.90;;;;;;5095890;28;20362;-85
2021/04/16 08:38:59;;;;;;;15.38;4.30;;;20.60;34.90;;;;;;5096306;28;20039;-87
2021/04/16 08:41:28;;;;;;;7.43;4.10;;;20.20;35.00;;;;;;5095289;28;20103;-86
2021/04/16 08:43:58;;;;;;;11.50;4.57;;;19.90;35.30;;;;;;5076214;28;20398;-86
2021/04/16 08:46:36;;;;;;;4.00;3.25;;;19.60;35.80;;;;;;5073894;28;20020;-84
2021/04/16 08:49:23;;;;;;;7.93;3.55;;;19.80;36.00;;;;;;5093827;28;20024;-86
2021/04/16 08:52:01;;;;;;;14.48;4.15;;;19.70;35.60;;;;;;5075409;28;20016;-85
2021/04/16 08:54:30;;;;;;;10.38;3.50;;;20.20;35.80;;;;;;5093058;28;20070;-86
2021/04/16 08:57:04;;;;;;;12.93;3.80;;;21.20;34.20;;;;;;5094014;28;20019;-85
2021/04/16 08:59:55;;;;;;;11.27;4.50;;;21.40;33.40;;;;;;5075031;28;20055;-85
2021/04/16 09:02:29;;;;;;;14.05;4.35;;;22.10;33.20;;;;;;5045972;28;20064;-85
2021/04/16 09:05:15;;;;;;;6.70;3.58;;;22.80;31.70;;;;;;5077535;28;20481;-87
2021/04/16 09:07:48;;;;;;;10.25;4.63;;;22.50;31.70;;;;;;5079487;28;20078;-86
2021/04/16 09:10:17;;;;;;;9.25;4.05;;;22.50;31.90;;;;;;5092540;28;20028;-85
2021/04/16 09:13:08;;;;;;;18.25;5.93;;;22.70;32.00;;;;;;5060797;28;20047;-85
2021/04/16 09:15:33;;;;;;;9.18;4.85;;;23.30;31.40;;;;;;5074534;28;20040;-85
2021/04/16 09:17:59;;;;;;;14.88;7.07;;;24.00;30.20;;;;;;5093012;28;20044;-87
2021/04/16 09:20:34;;;;;;;8.93;5.20;;;24.00;29.80;;;;;;5096885;28;20074;-86
2021/04/16 09:23:17;;;;;;;10.30;3.72;;;23.20;30.80;;;;;;5083536;28;20107;-86
2021/04/16 09:25:44;;;;;;;7.15;4.20;;;23.30;30.60;;;;;;5078117;28;20116;-85
2021/04/16 09:28:22;;;;;;;16.08;4.03;;;23.80;30.20;;;;;;5097281;28;20039;-84
2021/04/16 09:31:00;;;;;;;11.88;4.15;;;24.40;29.90;;;;;;5099522;28;20016;-86
2021/04/16 09:33:38;;;;;;;15.57;5.88;;;24.00;29.70;;;;;;5097756;28;20028;-87
2021/04/16 09:36:32;;;;;;;8.27;3.30;;;23.90;29.80;;;;;;5098047;28;20027;-85
2021/04/16 09:39:15;;;;;;;7.88;3.50;;;24.10;30.40;;;;;;5096982;28;20056;-84
2021/04/16 09:41:43;;;;;;;12.40;6.07;;;25.40;29.30;;;;;;5102178;28;20016;-86
2021/04/16 09:44:27;;;;;;;10.40;4.90;;;25.80;28.40;;;;;;5103780;28;20032;-87
2021/04/16 09:47:01;;;;;;;15.75;5.85;;;25.90;28.40;;;;;;5088743;28;20025;-86
2021/04/16 09:49:53;;;;;;;14.73;4.25;;;25.20;28.60;;;;;;5098013;28;20050;-87
2021/04/16 09:52:33;;;;;;;9.60;4.03;;;24.90;28.80;;;;;;5088462;28;20115;-85
2021/04/16 09:54:59;;;;;;;7.55;3.95;;;25.50;28.70;;;;;;5081834;28;20032;-89
2021/04/16 09:57:42;;;;;;;6.70;3.88;;;26.00;28.10;;;;;;5105411;28;20057;-91
2021/04/16 10:00:53;;;;;;;8.23;3.55;;;25.30;28.60;;;;;;5089578;28;20504;-85
2021/04/16 10:03:40;;;;;;;9.70;4.65;;;24.90;28.60;;;;;;5071984;28;20392;-87
2021/04/16 10:06:43;;;;;;;11.95;3.78;;;23.30;30.00;;;;;;5084669;28;20082;-85
2021/04/16 10:09:17;;;;;;;5.28;2.97;;;23.20;30.70;;;;;;5096807;28;20507;-85
2021/04/16 10:12:00;;;;;;;9.38;4.47;;;23.10;30.60;;;;;;5095442;28;20078;-85
2021/04/16 10:14:37;;;;;;;9.32;3.28;;;22.80;31.20;;;;;;5082429;28;20031;-87
2021/04/16 10:17:14;;;;;;;8.18;3.75;;;22.30;30.90;;;;;;5095888;28;20031;-85
2021/04/16 10:19:48;;;;;;;;;;;21.40;32.40;;;;;;5078184;28;20036;-87
2021/04/16 10:22:26;;;;;;;10.10;3.22;;;21.50;33.10;;;;;;5078289;28;19919;-84
2021/04/16 12:40:23;;;;;;;15.07;6.30;;;18.80;38.60;;;;;;5097654;28;20025;-86
2021/04/16 12:42:49;;;;;;;9.63;5.68;;;18.90;38.30;;;;;;5108441;28;20031;-86
2021/04/16 12:45:15;;;;;;;10.25;5.70;;;18.90;38.50;;;;;;5094742;28;20476;-86
2021/04/16 12:47:41;;;;;;;10.83;5.83;;;18.80;38.40;;;;;;5094804;28;20385;-83
2021/04/16 12:50:10;;;;;;;16.20;6.15;;;18.80;38.70;;;;;;5093633;28;20317;-85
2021/04/16 12:52:35;;;;;;;10.70;5.70;;;18.80;38.80;;;;;;5078707;28;20059;-85
2021/04/16 12:55:02;;;;;;;12.52;5.93;;;19.00;38.60;;;;;;5079546;28;20036;-86
2021/04/16 12:57:38;;;;;;;10.13;4.93;;;19.10;38.20;;;;;;5097613;28;20024;-86
2021/04/16 13:00:09;;;;;;;14.52;5.53;;;19.00;38.00;;;;;;5078635;28;20500;-85
2021/04/16 13:02:35;;;;;;;14.52;5.78;;;18.90;38.50;;;;;;5079154;28;20066;-85
2021/04/16 13:05:07;;;;;;;11.38;5.18;;;18.80;38.90;;;;;;5097307;28;20039;-84
2021/04/16 13:07:34;;;;;;;15.68;6.50;;;19.00;38.30;;;;;;5097621;28;20053;-86
2021/04/16 13:10:00;;;;;;;8.23;4.43;;;19.10;38.30;;;;;;5098495;28;20016;-88
2021/04/16 13:12:26;;;;;;;12.52;5.50;;;19.10;38.10;;;;;;5102988;28;20024;-85
2021/04/16 13:14:51;;;;;;;15.60;5.68;;;19.00;38.20;;;;;;5100210;28;20024;-85
2021/04/16 13:17:23;;;;;;;13.82;5.55;;;18.90;38.40;;;;;;5093557;28;20041;-85
2021/04/16 13:19:50;;;;;;;19.52;5.43;;;19.00;38.50;;;;;;5079076;28;20036;-84
2021/04/16 13:22:20;;;;;;;14.95;5.72;;;19.00;38.60;;;;;;5087555;28;20017;-86
2021/04/16 13:24:48;;;;;;;16.40;5.72;;;19.00;38.60;;;;;;5084431;28;20029;-86
2021/04/16 13:27:17;;;;;;;12.95;4.75;;;19.10;38.60;;;;;;5077655;28;20017;-88
2021/04/16 13:29:44;;;;;;;11.27;5.47;;;19.10;38.30;;;;;;5085344;28;20023;-85
2021/04/16 13:32:14;;;;;;;11.73;4.93;;;19.00;38.40;;;;;;5064265;28;20055;-85
2021/04/16 13:34:41;;;;;;;10.40;4.68;;;19.00;38.60;;;;;;5076743;28;20032;-86
2021/04/16 13:37:09;;;;;;;12.40;5.10;;;19.00;38.50;;;;;;5077754;28;20081;-86
2021/04/16 13:39:35;;;;;;;11.48;5.68;;;19.00;38.60;;;;;;5061365;28;20035;-86
2021/04/16 13:42:00;;;;;;;14.57;5.13;;;19.00;38.60;;;;;;5076547;28;20013;-83
2021/04/16 13:44:26;;;;;;;17.48;6.28;;;19.00;38.60;;;;;;5078141;28;20029;-83
2021/04/16 13:46:52;;;;;;;19.80;5.43;;;19.10;38.70;;;;;;5077485;28;20016;-84
2021/04/16 13:49:22;;;;;;;7.07;4.32;;;19.10;38.40;;;;;;5077977;28;20107;-84
2021/04/16 13:51:49;;;;;;;19.75;4.70;;;19.20;38.30;;;;;;5076518;28;20023;-84
2021/04/16 13:54:14;;;;;;;13.23;4.47;;;19.20;38.10;;;;;;5079445;28;20035;-84
2021/04/16 13:56:40;;;;;;;12.93;4.75;;;19.20;38.00;;;;;;5084040;28;20020;-84
2021/04/16 13:59:06;;;;;;;13.88;4.80;;;19.00;38.00;;;;;;5078607;28;20131;-86
2021/04/16 14:01:33;;;;;;;8.05;4.60;;;18.90;38.20;;;;;;5077317;28;20016;-86
2021/04/16 14:04:03;;;;;;;10.05;4.65;;;18.70;38.40;;;;;;5076985;28;20085;-85
2021/04/16 14:06:39;;;;;;;11.48;4.22;;;18.60;38.70;;;;;;5077462;28;20031;-86
2021/04/16 14:09:11;;;;;;;12.00;5.05;;;18.50;38.90;;;;;;5076665;28;20025;-85
2021/04/16 14:11:37;;;;;;;9.27;4.57;;;18.80;39.00;;;;;;5077289;28;20016;-84
2021/04/16 14:14:13;;;;;;;11.15;4.25;;;19.40;38.30;;;;;;5076221;28;20062;-85
2021/04/16 14:16:41;;;;;;;11.02;4.35;;;19.70;37.60;;;;;;5075467;28;20031;-85
2021/04/16 14:19:25;;;;;;;10.75;4.03;;;19.40;37.30;;;;;;5076771;28;20048;-85
2021/04/16 14:21:54;;;;;;;13.90;5.00;;;19.50;37.40;;;;;;5096099;28;20020;-86
2021/04/16 14:24:21;;;;;;;17.08;5.50;;;19.20;37.40;;;;;;5095288;28;20492;-87
2021/04/16 14:26:50;;;;;;;15.23;5.60;;;18.80;38.10;;;;;;5097241;28;20036;-84
2021/04/16 14:29:16;;;;;;;9.55;4.55;;;18.40;38.40;;;;;;5097437;28;20373;-84
2021/04/16 14:31:43;;;;;;;16.27;6.80;;;18.20;39.20;;;;;;5097898;28;20024;-85
2021/04/16 14:34:14;;;;;;;12.95;5.85;;;18.00;39.60;;;;;;5095873;28;20465;-84
2021/04/16 14:36:40;;;;;;;18.73;7.20;;;17.80;40.00;;;;;;5096068;28;20027;-86
2021/04/16 14:39:07;;;;;;;27.65;8.50;;;17.60;40.90;;;;;;5095259;28;20088;-84
2021/04/16 14:41:35;;;;;;;10.88;7.38;;;17.60;40.70;;;;;;5094574;28;20389;-83
2021/04/16 14:44:01;;;;;;;13.60;6.20;;;17.50;40.50;;;;;;5094510;28;20500;-86
2021/04/16 14:46:27;;;;;;;10.70;5.63;;;17.40;40.60;;;;;;5094791;28;20043;-83
2021/04/16 14:48:54;;;;;;;19.55;6.93;;;17.30;40.80;;;;;;5095215;28;20393;-85
2021/04/16 14:51:25;;;;;;;19.43;6.83;;;17.20;41.00;;;;;;5098761;28;20028;-85
2021/04/16 14:53:55;;;;;;;15.77;5.70;;;17.10;41.10;;;;;;5098372;28;20048;-83
2021/04/16 14:56:21;;;;;;;11.55;6.25;;;17.10;41.30;;;;;;5095698;28;20113;-85
2021/04/16 14:59:02;;;;;;;19.02;8.57;;;17.00;41.60;;;;;;5081039;28;20020;-85
2021/04/16 15:01:30;;;;;;;14.27;7.07;;;16.90;41.80;;;;;;5101157;28;20039;-86
2021/04/16 15:03:56;;;;;;;9.85;6.75;;;16.90;42.00;;;;;;5091505;28;20027;-85
2021/04/16 15:06:26;;;;;;;10.93;6.47;;;16.80;42.10;;;;;;5097968;28;20055;-84
2021/04/16 15:09:15;;;;;;;12.50;6.00;;;16.80;42.10;;;;;;5095309;28;20084;-85
2021/04/16 15:11:46;;;;;;;10.18;6.70;;;16.70;42.50;;;;;;5095229;28;20058;-86
2021/04/16 15:14:26;;;;;;;14.40;6.88;;;16.60;42.50;;;;;;5094174;28;20028;-85
2021/04/16 15:16:53;;;;;;;15.63;6.80;;;16.60;42.60;;;;;;5094842;28;20066;-84
2021/04/16 15:19:46;;;;;;;12.57;6.97;;;16.60;42.80;;;;;;5095047;28;20085;-85
2021/04/16 15:22:24;;;;;;;17.17;6.75;;;16.60;42.80;;;;;;5092434;28;20393;-87